sensor_id;sensor_type;location;lat;lon;timestamp;P1;durP1;ratioP1;P2;durP2;ratioP2
3843;SDS011;1937;51.444;6.484;2024-01-27T00:01:45;10.70;;;3.77;;
3843;SDS011;1937;51.444;6.484;2024-01-27T00:04:11;7.47;;;3.93;;
3843;SDS011;1937;51.444;6.484;2024-01-27T00:06:38;8.90;;;3.83;;
3843;SDS011;1937;51.444;6.484;2024-01-27T00:09:06;8.93;;;4.43;;
3843;SDS011;1937;51.444;6.484;2024-01-27T00:11:33;8.47;;;3.73;;
3843;SDS011;1937;51.444;6.484;2024-01-27T00:14:00;14.20;;;4.00;;
3843;SDS011;1937;51.444;6.484;2024-01-27T00:16:27;19.13;;;5.60;;
3843;SDS011;1937;51.444;6.484;2024-01-27T00:18:53;19.53;;;5.20;;
3843;SDS011;1937;51.444;6.484;2024-01-27T00:21:20;9.07;;;4.23;;
3843;SDS011;1937;51.444;6.484;2024-01-27T00:23:47;12.03;;;4.33;;
3843;SDS011;1937;51.444;6.484;2024-01-27T00:26:15;10.83;;;3.77;;
3843;SDS011;1937;51.444;6.484;2024-01-27T00:28:41;5.97;;;4.40;;
3843;SDS011;1937;51.444;6.484;2024-01-27T00:31:08;11.73;;;4.13;;
3843;SDS011;1937;51.444;6.484;2024-01-27T00:33:35;15.33;;;5.10;;
3843;SDS011;1937;51.444;6.484;2024-01-27T00:36:02;6.93;;;3.70;;
3843;SDS011;1937;51.444;6.484;2024-01-27T00:38:29;9.73;;;4.70;;
3843;SDS011;1937;51.444;6.484;2024-01-27T00:40:55;13.30;;;4.47;;
3843;SDS011;1937;51.444;6.484;2024-01-27T00:43:24;10.77;;;4.97;;
3843;SDS011;1937;51.444;6.484;2024-01-27T00:45:50;10.53;;;5.07;;
3843;SDS011;1937;51.444;6.484;2024-01-27T00:48:17;13.53;;;5.63;;
3843;SDS011;1937;51.444;6.484;2024-01-27T00:50:44;22.30;;;5.53;;
3843;SDS011;1937;51.444;6.484;2024-01-27T00:53:11;17.23;;;4.50;;
3843;SDS011;1937;51.444;6.484;2024-01-27T00:55:37;14.70;;;4.83;;
3843;SDS011;1937;51.444;6.484;2024-01-27T00:58:04;18.60;;;6.03;;
3843;SDS011;1937;51.444;6.484;2024-01-27T01:00:32;13.67;;;4.53;;
3843;SDS011;1937;51.444;6.484;2024-01-27T01:02:59;13.13;;;4.67;;
3843;SDS011;1937;51.444;6.484;2024-01-27T01:05:25;14.37;;;4.87;;
3843;SDS011;1937;51.444;6.484;2024-01-27T01:07:52;18.67;;;4.73;;
3843;SDS011;1937;51.444;6.484;2024-01-27T01:10:19;14.73;;;4.20;;
3843;SDS011;1937;51.444;6.484;2024-01-27T01:12:46;15.87;;;5.17;;
3843;SDS011;1937;51.444;6.484;2024-01-27T01:15:13;16.40;;;4.73;;
3843;SDS011;1937;51.444;6.484;2024-01-27T01:17:42;7.50;;;4.07;;
3843;SDS011;1937;51.444;6.484;2024-01-27T01:20:08;11.40;;;4.33;;
3843;SDS011;1937;51.444;6.484;2024-01-27T01:22:36;12.40;;;5.20;;
3843;SDS011;1937;51.444;6.484;2024-01-27T01:25:02;10.53;;;5.70;;
3843;SDS011;1937;51.444;6.484;2024-01-27T01:27:28;9.10;;;4.80;;
3843;SDS011;1937;51.444;6.484;2024-01-27T01:29:55;10.80;;;4.80;;
3843;SDS011;1937;51.444;6.484;2024-01-27T01:32:22;11.60;;;4.87;;
3843;SDS011;1937;51.444;6.484;2024-01-27T01:34:50;5.37;;;4.40;;
3843;SDS011;1937;51.444;6.484;2024-01-27T01:37:17;14.60;;;5.27;;
3843;SDS011;1937;51.444;6.484;2024-01-27T01:39:43;12.63;;;4.50;;
3843;SDS011;1937;51.444;6.484;2024-01-27T01:42:10;12.13;;;5.70;;
3843;SDS011;1937;51.444;6.484;2024-01-27T01:44:37;10.93;;;3.93;;
3843;SDS011;1937;51.444;6.484;2024-01-27T01:47:03;14.87;;;5.10;;
3843;SDS011;1937;51.444;6.484;2024-01-27T01:49:30;9.67;;;4.60;;
3843;SDS011;1937;51.444;6.484;2024-01-27T01:51:59;15.13;;;4.97;;
3843;SDS011;1937;51.444;6.484;2024-01-27T01:54:25;16.73;;;5.03;;
3843;SDS011;1937;51.444;6.484;2024-01-27T01:56:53;16.30;;;5.20;;
3843;SDS011;1937;51.444;6.484;2024-01-27T01:59:21;11.53;;;5.37;;
3843;SDS011;1937;51.444;6.484;2024-01-27T02:01:47;14.47;;;5.57;;
3843;SDS011;1937;51.444;6.484;2024-01-27T02:04:14;10.90;;;5.70;;
3843;SDS011;1937;51.444;6.484;2024-01-27T02:06:41;15.63;;;5.60;;
3843;SDS011;1937;51.444;6.484;2024-01-27T02:09:09;17.13;;;5.23;;
3843;SDS011;1937;51.444;6.484;2024-01-27T02:11:36;10.67;;;5.50;;
3843;SDS011;1937;51.444;6.484;2024-01-27T02:14:03;12.47;;;5.20;;
3843;SDS011;1937;51.444;6.484;2024-01-27T02:16:30;7.40;;;5.13;;
3843;SDS011;1937;51.444;6.484;2024-01-27T02:18:56;12.33;;;5.73;;
3843;SDS011;1937;51.444;6.484;2024-01-27T02:21:23;16.80;;;6.30;;
3843;SDS011;1937;51.444;6.484;2024-01-27T02:23:50;9.63;;;5.70;;
3843;SDS011;1937;51.444;6.484;2024-01-27T02:26:18;7.70;;;5.27;;
3843;SDS011;1937;51.444;6.484;2024-01-27T02:28:44;11.37;;;5.13;;
3843;SDS011;1937;51.444;6.484;2024-01-27T02:31:11;9.97;;;5.17;;
3843;SDS011;1937;51.444;6.484;2024-01-27T02:33:38;13.87;;;5.40;;
3843;SDS011;1937;51.444;6.484;2024-01-27T02:36:05;17.20;;;5.93;;
3843;SDS011;1937;51.444;6.484;2024-01-27T02:38:31;10.60;;;5.70;;
3843;SDS011;1937;51.444;6.484;2024-01-27T02:40:58;14.83;;;6.60;;
3843;SDS011;1937;51.444;6.484;2024-01-27T02:43:26;15.20;;;6.47;;
3843;SDS011;1937;51.444;6.484;2024-01-27T02:45:53;12.00;;;5.67;;
3843;SDS011;1937;51.444;6.484;2024-01-27T02:48:20;15.03;;;5.27;;
3843;SDS011;1937;51.444;6.484;2024-01-27T02:50:47;17.00;;;5.33;;
3843;SDS011;1937;51.444;6.484;2024-01-27T02:53:13;12.00;;;5.20;;
3843;SDS011;1937;51.444;6.484;2024-01-27T02:55:40;11.50;;;5.20;;
3843;SDS011;1937;51.444;6.484;2024-01-27T02:58:06;14.57;;;5.40;;
3843;SDS011;1937;51.444;6.484;2024-01-27T03:00:35;13.90;;;6.23;;
3843;SDS011;1937;51.444;6.484;2024-01-27T03:03:01;8.73;;;5.67;;
3843;SDS011;1937;51.444;6.484;2024-01-27T03:05:28;13.73;;;4.50;;
3843;SDS011;1937;51.444;6.484;2024-01-27T03:07:55;12.17;;;5.80;;
3843;SDS011;1937;51.444;6.484;2024-01-27T03:10:22;11.30;;;5.70;;
3843;SDS011;1937;51.444;6.484;2024-01-27T03:12:48;11.60;;;5.60;;
3843;SDS011;1937;51.444;6.484;2024-01-27T03:15:15;14.73;;;6.33;;
3843;SDS011;1937;51.444;6.484;2024-01-27T03:17:45;11.60;;;5.60;;
3843;SDS011;1937;51.444;6.484;2024-01-27T03:20:12;8.57;;;5.77;;
3843;SDS011;1937;51.444;6.484;2024-01-27T03:22:39;13.77;;;6.40;;
3843;SDS011;1937;51.444;6.484;2024-01-27T03:25:07;11.70;;;5.10;;
3843;SDS011;1937;51.444;6.484;2024-01-27T03:27:34;14.70;;;6.10;;
3843;SDS011;1937;51.444;6.484;2024-01-27T03:30:01;13.30;;;4.87;;
3843;SDS011;1937;51.444;6.484;2024-01-27T03:32:28;12.47;;;6.63;;
3843;SDS011;1937;51.444;6.484;2024-01-27T03:34:58;16.93;;;6.67;;
3843;SDS011;1937;51.444;6.484;2024-01-27T03:37:24;14.43;;;5.77;;
3843;SDS011;1937;51.444;6.484;2024-01-27T03:39:51;24.67;;;6.80;;
3843;SDS011;1937;51.444;6.484;2024-01-27T03:42:18;17.40;;;6.40;;
3843;SDS011;1937;51.444;6.484;2024-01-27T03:44:44;21.03;;;5.83;;
3843;SDS011;1937;51.444;6.484;2024-01-27T03:47:11;10.23;;;5.40;;
3843;SDS011;1937;51.444;6.484;2024-01-27T03:49:37;16.27;;;6.20;;
3843;SDS011;1937;51.444;6.484;2024-01-27T03:52:05;14.03;;;6.30;;
3843;SDS011;1937;51.444;6.484;2024-01-27T03:54:32;8.47;;;5.70;;
3843;SDS011;1937;51.444;6.484;2024-01-27T03:56:59;13.27;;;5.57;;
3843;SDS011;1937;51.444;6.484;2024-01-27T03:59:26;16.90;;;6.17;;
3843;SDS011;1937;51.444;6.484;2024-01-27T04:01:52;20.00;;;6.80;;
3843;SDS011;1937;51.444;6.484;2024-01-27T04:04:19;14.37;;;5.93;;
3843;SDS011;1937;51.444;6.484;2024-01-27T04:06:45;12.90;;;5.30;;
3843;SDS011;1937;51.444;6.484;2024-01-27T04:09:14;16.53;;;6.50;;
3843;SDS011;1937;51.444;6.484;2024-01-27T04:11:41;23.33;;;6.20;;
3843;SDS011;1937;51.444;6.484;2024-01-27T04:14:07;14.97;;;6.27;;
3843;SDS011;1937;51.444;6.484;2024-01-27T04:16:34;16.90;;;5.67;;
3843;SDS011;1937;51.444;6.484;2024-01-27T04:19:01;16.53;;;6.63;;
3843;SDS011;1937;51.444;6.484;2024-01-27T04:21:29;13.97;;;6.57;;
3843;SDS011;1937;51.444;6.484;2024-01-27T04:23:55;18.33;;;6.10;;
3843;SDS011;1937;51.444;6.484;2024-01-27T04:26:24;15.30;;;5.97;;
3843;SDS011;1937;51.444;6.484;2024-01-27T04:28:50;16.13;;;6.83;;
3843;SDS011;1937;51.444;6.484;2024-01-27T04:31:17;12.97;;;6.40;;
3843;SDS011;1937;51.444;6.484;2024-01-27T04:33:43;9.03;;;5.43;;
3843;SDS011;1937;51.444;6.484;2024-01-27T04:36:10;14.63;;;5.37;;
3843;SDS011;1937;51.444;6.484;2024-01-27T04:38:37;10.67;;;5.60;;
3843;SDS011;1937;51.444;6.484;2024-01-27T04:41:04;17.73;;;6.20;;
3843;SDS011;1937;51.444;6.484;2024-01-27T04:43:32;18.13;;;6.60;;
3843;SDS011;1937;51.444;6.484;2024-01-27T04:45:58;11.40;;;6.10;;
3843;SDS011;1937;51.444;6.484;2024-01-27T04:48:25;14.83;;;6.47;;
3843;SDS011;1937;51.444;6.484;2024-01-27T04:50:51;15.93;;;5.73;;
3843;SDS011;1937;51.444;6.484;2024-01-27T04:53:18;14.13;;;6.70;;
3843;SDS011;1937;51.444;6.484;2024-01-27T04:55:45;20.07;;;8.30;;
3843;SDS011;1937;51.444;6.484;2024-01-27T04:58:11;14.03;;;5.97;;
3843;SDS011;1937;51.444;6.484;2024-01-27T05:00:40;10.53;;;6.20;;
3843;SDS011;1937;51.444;6.484;2024-01-27T05:03:07;13.50;;;6.43;;
3843;SDS011;1937;51.444;6.484;2024-01-27T05:05:40;15.40;;;6.10;;
3843;SDS011;1937;51.444;6.484;2024-01-27T05:08:07;10.40;;;5.60;;
3843;SDS011;1937;51.444;6.484;2024-01-27T05:10:34;13.17;;;6.47;;
3843;SDS011;1937;51.444;6.484;2024-01-27T05:13:03;12.77;;;6.17;;
3843;SDS011;1937;51.444;6.484;2024-01-27T05:15:30;17.33;;;6.27;;
3843;SDS011;1937;51.444;6.484;2024-01-27T05:17:58;12.60;;;5.60;;
3843;SDS011;1937;51.444;6.484;2024-01-27T05:20:24;12.20;;;6.73;;
3843;SDS011;1937;51.444;6.484;2024-01-27T05:22:51;19.47;;;6.17;;
3843;SDS011;1937;51.444;6.484;2024-01-27T05:25:17;13.33;;;5.60;;
3843;SDS011;1937;51.444;6.484;2024-01-27T05:27:44;23.40;;;7.70;;
3843;SDS011;1937;51.444;6.484;2024-01-27T05:30:11;11.40;;;6.10;;
3843;SDS011;1937;51.444;6.484;2024-01-27T05:32:38;20.80;;;6.73;;
3843;SDS011;1937;51.444;6.484;2024-01-27T05:35:07;16.33;;;5.73;;
3843;SDS011;1937;51.444;6.484;2024-01-27T05:37:34;13.87;;;5.60;;
3843;SDS011;1937;51.444;6.484;2024-01-27T05:40:01;18.23;;;6.10;;
3843;SDS011;1937;51.444;6.484;2024-01-27T05:42:28;16.73;;;7.20;;
3843;SDS011;1937;51.444;6.484;2024-01-27T05:44:54;11.67;;;5.53;;
3843;SDS011;1937;51.444;6.484;2024-01-27T05:47:21;18.23;;;6.50;;
3843;SDS011;1937;51.444;6.484;2024-01-27T05:49:47;15.17;;;6.87;;
3843;SDS011;1937;51.444;6.484;2024-01-27T05:52:16;12.83;;;5.90;;
3843;SDS011;1937;51.444;6.484;2024-01-27T05:54:42;15.60;;;6.90;;
3843;SDS011;1937;51.444;6.484;2024-01-27T05:57:08;14.87;;;7.23;;
3843;SDS011;1937;51.444;6.484;2024-01-27T05:59:35;14.20;;;6.90;;
3843;SDS011;1937;51.444;6.484;2024-01-27T06:02:01;15.10;;;6.70;;
3843;SDS011;1937;51.444;6.484;2024-01-27T06:04:28;19.67;;;7.30;;
3843;SDS011;1937;51.444;6.484;2024-01-27T06:06:56;15.93;;;7.03;;
3843;SDS011;1937;51.444;6.484;2024-01-27T06:09:24;19.97;;;7.33;;
3843;SDS011;1937;51.444;6.484;2024-01-27T06:11:51;11.60;;;6.03;;
3843;SDS011;1937;51.444;6.484;2024-01-27T06:14:17;9.93;;;6.00;;
3843;SDS011;1937;51.444;6.484;2024-01-27T06:16:44;10.90;;;5.70;;
3843;SDS011;1937;51.444;6.484;2024-01-27T06:19:11;17.03;;;8.63;;
3843;SDS011;1937;51.444;6.484;2024-01-27T06:21:37;17.40;;;6.90;;
3843;SDS011;1937;51.444;6.484;2024-01-27T06:24:04;15.87;;;7.53;;
3843;SDS011;1937;51.444;6.484;2024-01-27T06:26:32;18.57;;;7.73;;
3843;SDS011;1937;51.444;6.484;2024-01-27T06:28:59;15.57;;;6.90;;
3843;SDS011;1937;51.444;6.484;2024-01-27T06:31:27;17.93;;;7.40;;
3843;SDS011;1937;51.444;6.484;2024-01-27T06:33:54;15.10;;;7.63;;
3843;SDS011;1937;51.444;6.484;2024-01-27T06:36:21;16.80;;;7.80;;
3843;SDS011;1937;51.444;6.484;2024-01-27T06:38:49;17.97;;;7.43;;
3843;SDS011;1937;51.444;6.484;2024-01-27T06:41:16;13.70;;;6.63;;
3843;SDS011;1937;51.444;6.484;2024-01-27T06:43:44;32.13;;;7.97;;
3843;SDS011;1937;51.444;6.484;2024-01-27T06:46:11;15.47;;;7.30;;
3843;SDS011;1937;51.444;6.484;2024-01-27T06:48:37;17.97;;;7.53;;
3843;SDS011;1937;51.444;6.484;2024-01-27T06:51:04;18.23;;;8.47;;
3843;SDS011;1937;51.444;6.484;2024-01-27T06:53:31;19.60;;;7.30;;
3843;SDS011;1937;51.444;6.484;2024-01-27T06:55:57;14.17;;;8.40;;
3843;SDS011;1937;51.444;6.484;2024-01-27T06:58:24;24.47;;;8.10;;
3843;SDS011;1937;51.444;6.484;2024-01-27T07:00:52;8.77;;;6.17;;
3843;SDS011;1937;51.444;6.484;2024-01-27T07:03:19;17.67;;;7.40;;
3843;SDS011;1937;51.444;6.484;2024-01-27T07:05:46;20.43;;;7.97;;
3843;SDS011;1937;51.444;6.484;2024-01-27T07:08:12;20.30;;;7.63;;
3843;SDS011;1937;51.444;6.484;2024-01-27T07:10:39;18.33;;;7.80;;
3843;SDS011;1937;51.444;6.484;2024-01-27T07:13:05;22.47;;;8.93;;
3843;SDS011;1937;51.444;6.484;2024-01-27T07:15:32;15.50;;;7.00;;
3843;SDS011;1937;51.444;6.484;2024-01-27T07:18:00;14.33;;;7.00;;
3843;SDS011;1937;51.444;6.484;2024-01-27T07:20:27;17.03;;;8.47;;
3843;SDS011;1937;51.444;6.484;2024-01-27T07:22:54;22.17;;;8.60;;
3843;SDS011;1937;51.444;6.484;2024-01-27T07:25:20;28.13;;;7.60;;
3843;SDS011;1937;51.444;6.484;2024-01-27T07:27:47;20.07;;;8.10;;
3843;SDS011;1937;51.444;6.484;2024-01-27T07:30:14;19.00;;;8.83;;
3843;SDS011;1937;51.444;6.484;2024-01-27T07:32:41;11.67;;;8.00;;
3843;SDS011;1937;51.444;6.484;2024-01-27T07:35:10;25.17;;;8.47;;
3843;SDS011;1937;51.444;6.484;2024-01-27T07:37:37;20.10;;;7.67;;
3843;SDS011;1937;51.444;6.484;2024-01-27T07:40:04;22.67;;;8.70;;
3843;SDS011;1937;51.444;6.484;2024-01-27T07:42:32;12.30;;;7.93;;
3843;SDS011;1937;51.444;6.484;2024-01-27T07:44:58;24.13;;;9.43;;
3843;SDS011;1937;51.444;6.484;2024-01-27T07:47:25;16.30;;;8.70;;
3843;SDS011;1937;51.444;6.484;2024-01-27T07:49:51;22.17;;;7.97;;
3843;SDS011;1937;51.444;6.484;2024-01-27T07:52:20;35.23;;;8.37;;
3843;SDS011;1937;51.444;6.484;2024-01-27T07:54:46;21.87;;;8.90;;
3843;SDS011;1937;51.444;6.484;2024-01-27T07:57:13;31.83;;;8.40;;
3843;SDS011;1937;51.444;6.484;2024-01-27T07:59:40;19.23;;;7.77;;
3843;SDS011;1937;51.444;6.484;2024-01-27T08:02:06;16.43;;;7.60;;
3843;SDS011;1937;51.444;6.484;2024-01-27T08:04:33;20.73;;;9.33;;
3843;SDS011;1937;51.444;6.484;2024-01-27T08:06:59;19.17;;;7.73;;
3843;SDS011;1937;51.444;6.484;2024-01-27T08:09:32;21.80;;;10.23;;
3843;SDS011;1937;51.444;6.484;2024-01-27T08:11:59;13.40;;;7.80;;
3843;SDS011;1937;51.444;6.484;2024-01-27T08:14:26;15.77;;;8.00;;
3843;SDS011;1937;51.444;6.484;2024-01-27T08:16:55;18.73;;;8.80;;
3843;SDS011;1937;51.444;6.484;2024-01-27T08:19:21;13.97;;;8.40;;
3843;SDS011;1937;51.444;6.484;2024-01-27T08:21:48;15.23;;;7.57;;
3843;SDS011;1937;51.444;6.484;2024-01-27T08:24:15;25.20;;;8.50;;
3843;SDS011;1937;51.444;6.484;2024-01-27T08:26:43;26.03;;;8.30;;
3843;SDS011;1937;51.444;6.484;2024-01-27T08:29:12;24.27;;;8.87;;
3843;SDS011;1937;51.444;6.484;2024-01-27T08:31:39;18.87;;;8.90;;
3843;SDS011;1937;51.444;6.484;2024-01-27T08:34:05;19.40;;;7.10;;
3843;SDS011;1937;51.444;6.484;2024-01-27T08:36:33;22.03;;;7.20;;
3843;SDS011;1937;51.444;6.484;2024-01-27T08:39:00;17.67;;;6.57;;
3843;SDS011;1937;51.444;6.484;2024-01-27T08:41:28;14.43;;;6.27;;
3843;SDS011;1937;51.444;6.484;2024-01-27T08:43:56;17.13;;;5.97;;
3843;SDS011;1937;51.444;6.484;2024-01-27T08:46:22;18.67;;;6.27;;
3843;SDS011;1937;51.444;6.484;2024-01-27T08:48:49;13.40;;;6.37;;
3843;SDS011;1937;51.444;6.484;2024-01-27T08:51:16;16.77;;;5.90;;
3843;SDS011;1937;51.444;6.484;2024-01-27T08:53:43;21.00;;;8.33;;
3843;SDS011;1937;51.444;6.484;2024-01-27T08:56:13;16.80;;;6.70;;
3843;SDS011;1937;51.444;6.484;2024-01-27T08:58:40;18.43;;;6.20;;
3843;SDS011;1937;51.444;6.484;2024-01-27T09:01:08;15.53;;;5.90;;
3843;SDS011;1937;51.444;6.484;2024-01-27T09:03:37;15.20;;;6.73;;
3843;SDS011;1937;51.444;6.484;2024-01-27T09:06:04;12.90;;;6.33;;
3843;SDS011;1937;51.444;6.484;2024-01-27T09:08:32;19.67;;;7.00;;
3843;SDS011;1937;51.444;6.484;2024-01-27T09:10:59;15.77;;;6.63;;
3843;SDS011;1937;51.444;6.484;2024-01-27T09:13:26;17.03;;;7.93;;
3843;SDS011;1937;51.444;6.484;2024-01-27T09:15:53;17.70;;;6.27;;
3843;SDS011;1937;51.444;6.484;2024-01-27T09:18:21;19.37;;;6.00;;
3843;SDS011;1937;51.444;6.484;2024-01-27T09:20:48;11.50;;;6.23;;
3843;SDS011;1937;51.444;6.484;2024-01-27T09:23:14;20.27;;;6.87;;
3843;SDS011;1937;51.444;6.484;2024-01-27T09:25:41;21.97;;;6.63;;
3843;SDS011;1937;51.444;6.484;2024-01-27T09:28:08;14.50;;;5.70;;
3843;SDS011;1937;51.444;6.484;2024-01-27T09:30:34;20.23;;;7.00;;
3843;SDS011;1937;51.444;6.484;2024-01-27T09:33:01;22.17;;;6.67;;
3843;SDS011;1937;51.444;6.484;2024-01-27T09:35:29;13.17;;;6.20;;
3843;SDS011;1937;51.444;6.484;2024-01-27T09:37:56;20.00;;;7.03;;
3843;SDS011;1937;51.444;6.484;2024-01-27T09:40:22;21.60;;;7.73;;
3843;SDS011;1937;51.444;6.484;2024-01-27T09:42:50;15.57;;;6.00;;
3843;SDS011;1937;51.444;6.484;2024-01-27T09:45:18;17.20;;;6.50;;
3843;SDS011;1937;51.444;6.484;2024-01-27T09:47:48;17.30;;;7.30;;
3843;SDS011;1937;51.444;6.484;2024-01-27T09:50:16;13.70;;;6.20;;
3843;SDS011;1937;51.444;6.484;2024-01-27T09:52:45;12.00;;;6.10;;
3843;SDS011;1937;51.444;6.484;2024-01-27T09:55:11;22.13;;;6.20;;
3843;SDS011;1937;51.444;6.484;2024-01-27T09:57:38;17.53;;;6.83;;
3843;SDS011;1937;51.444;6.484;2024-01-27T10:00:07;16.40;;;6.00;;
3843;SDS011;1937;51.444;6.484;2024-01-27T10:02:37;12.00;;;6.40;;
3843;SDS011;1937;51.444;6.484;2024-01-27T10:05:05;21.80;;;7.40;;
3843;SDS011;1937;51.444;6.484;2024-01-27T10:07:34;16.40;;;6.73;;
3843;SDS011;1937;51.444;6.484;2024-01-27T10:10:02;18.77;;;5.67;;
3843;SDS011;1937;51.444;6.484;2024-01-27T10:12:31;10.50;;;5.97;;
3843;SDS011;1937;51.444;6.484;2024-01-27T10:14:58;16.47;;;6.77;;
3843;SDS011;1937;51.444;6.484;2024-01-27T10:17:25;18.27;;;6.20;;
3843;SDS011;1937;51.444;6.484;2024-01-27T10:20:00;17.47;;;6.73;;
3843;SDS011;1937;51.444;6.484;2024-01-27T10:22:28;19.07;;;8.00;;
3843;SDS011;1937;51.444;6.484;2024-01-27T10:24:55;18.87;;;5.90;;
3843;SDS011;1937;51.444;6.484;2024-01-27T10:27:23;14.97;;;7.53;;
3843;SDS011;1937;51.444;6.484;2024-01-27T10:29:52;15.10;;;5.97;;
3843;SDS011;1937;51.444;6.484;2024-01-27T10:32:20;14.50;;;6.70;;
3843;SDS011;1937;51.444;6.484;2024-01-27T10:34:48;23.90;;;6.30;;
3843;SDS011;1937;51.444;6.484;2024-01-27T10:37:15;14.83;;;6.33;;
3843;SDS011;1937;51.444;6.484;2024-01-27T10:39:42;24.40;;;5.97;;
3843;SDS011;1937;51.444;6.484;2024-01-27T10:42:08;13.70;;;5.50;;
3843;SDS011;1937;51.444;6.484;2024-01-27T10:44:38;16.97;;;6.53;;
3843;SDS011;1937;51.444;6.484;2024-01-27T10:47:07;16.77;;;6.37;;
3843;SDS011;1937;51.444;6.484;2024-01-27T10:49:42;17.50;;;6.60;;
3843;SDS011;1937;51.444;6.484;2024-01-27T10:52:11;13.13;;;5.60;;
3843;SDS011;1937;51.444;6.484;2024-01-27T10:54:40;20.47;;;6.27;;
3843;SDS011;1937;51.444;6.484;2024-01-27T10:57:08;19.53;;;5.90;;
3843;SDS011;1937;51.444;6.484;2024-01-27T10:59:36;17.87;;;6.10;;
3843;SDS011;1937;51.444;6.484;2024-01-27T11:02:06;19.53;;;6.70;;
3843;SDS011;1937;51.444;6.484;2024-01-27T11:04:37;12.63;;;5.27;;
3843;SDS011;1937;51.444;6.484;2024-01-27T11:07:05;11.93;;;5.90;;
3843;SDS011;1937;51.444;6.484;2024-01-27T11:09:33;13.10;;;5.13;;
3843;SDS011;1937;51.444;6.484;2024-01-27T11:12:02;14.23;;;5.30;;
3843;SDS011;1937;51.444;6.484;2024-01-27T11:14:30;19.13;;;5.80;;
3843;SDS011;1937;51.444;6.484;2024-01-27T11:16:58;14.63;;;5.73;;
3843;SDS011;1937;51.444;6.484;2024-01-27T11:19:24;10.00;;;5.23;;
3843;SDS011;1937;51.444;6.484;2024-01-27T11:21:59;17.07;;;5.50;;
3843;SDS011;1937;51.444;6.484;2024-01-27T11:24:26;13.07;;;5.47;;
3843;SDS011;1937;51.444;6.484;2024-01-27T11:26:59;9.87;;;5.00;;
3843;SDS011;1937;51.444;6.484;2024-01-27T11:29:27;17.57;;;4.83;;
3843;SDS011;1937;51.444;6.484;2024-01-27T11:31:55;12.43;;;4.93;;
3843;SDS011;1937;51.444;6.484;2024-01-27T11:34:23;12.00;;;4.70;;
3843;SDS011;1937;51.444;6.484;2024-01-27T11:36:50;15.90;;;4.93;;
3843;SDS011;1937;51.444;6.484;2024-01-27T11:39:23;9.67;;;4.60;;
3843;SDS011;1937;51.444;6.484;2024-01-27T11:41:51;13.70;;;5.07;;
3843;SDS011;1937;51.444;6.484;2024-01-27T11:44:18;17.60;;;5.20;;
3843;SDS011;1937;51.444;6.484;2024-01-27T11:46:45;16.10;;;4.80;;
3843;SDS011;1937;51.444;6.484;2024-01-27T11:49:13;10.87;;;5.33;;
3843;SDS011;1937;51.444;6.484;2024-01-27T11:51:43;12.97;;;4.70;;
3843;SDS011;1937;51.444;6.484;2024-01-27T11:54:10;10.23;;;5.10;;
3843;SDS011;1937;51.444;6.484;2024-01-27T11:56:37;12.90;;;5.20;;
3843;SDS011;1937;51.444;6.484;2024-01-27T11:59:03;11.67;;;4.37;;
3843;SDS011;1937;51.444;6.484;2024-01-27T12:01:30;14.53;;;4.60;;
3843;SDS011;1937;51.444;6.484;2024-01-27T12:03:57;16.20;;;4.80;;
3843;SDS011;1937;51.444;6.484;2024-01-27T12:06:23;12.83;;;5.10;;
3843;SDS011;1937;51.444;6.484;2024-01-27T12:08:53;11.47;;;4.33;;
3843;SDS011;1937;51.444;6.484;2024-01-27T12:11:22;14.13;;;5.20;;
3843;SDS011;1937;51.444;6.484;2024-01-27T12:13:49;10.43;;;4.90;;
3843;SDS011;1937;51.444;6.484;2024-01-27T12:16:15;11.70;;;4.80;;
3843;SDS011;1937;51.444;6.484;2024-01-27T12:18:43;10.87;;;4.70;;
3843;SDS011;1937;51.444;6.484;2024-01-27T12:21:09;8.70;;;4.80;;
3843;SDS011;1937;51.444;6.484;2024-01-27T12:23:36;15.40;;;4.80;;
3843;SDS011;1937;51.444;6.484;2024-01-27T12:26:17;19.90;;;5.70;;
3843;SDS011;1937;51.444;6.484;2024-01-27T12:28:45;13.20;;;4.80;;
3843;SDS011;1937;51.444;6.484;2024-01-27T12:31:12;11.07;;;4.63;;
3843;SDS011;1937;51.444;6.484;2024-01-27T12:33:42;16.10;;;5.23;;
3843;SDS011;1937;51.444;6.484;2024-01-27T12:36:14;12.63;;;3.90;;
3843;SDS011;1937;51.444;6.484;2024-01-27T12:38:45;8.27;;;3.87;;
3843;SDS011;1937;51.444;6.484;2024-01-27T12:41:13;9.33;;;4.30;;
3843;SDS011;1937;51.444;6.484;2024-01-27T12:43:41;13.80;;;6.07;;
3843;SDS011;1937;51.444;6.484;2024-01-27T12:46:07;9.93;;;4.40;;
3843;SDS011;1937;51.444;6.484;2024-01-27T12:48:36;12.00;;;4.97;;
3843;SDS011;1937;51.444;6.484;2024-01-27T12:51:02;13.00;;;3.90;;
3843;SDS011;1937;51.444;6.484;2024-01-27T12:53:29;12.73;;;4.67;;
3843;SDS011;1937;51.444;6.484;2024-01-27T12:55:56;10.60;;;4.53;;
3843;SDS011;1937;51.444;6.484;2024-01-27T12:58:23;10.07;;;3.93;;
3843;SDS011;1937;51.444;6.484;2024-01-27T13:00:51;20.13;;;4.53;;
3843;SDS011;1937;51.444;6.484;2024-01-27T13:03:18;15.67;;;3.87;;
3843;SDS011;1937;51.444;6.484;2024-01-27T13:05:45;11.23;;;4.50;;
3843;SDS011;1937;51.444;6.484;2024-01-27T13:08:11;7.53;;;5.23;;
3843;SDS011;1937;51.444;6.484;2024-01-27T13:10:38;7.77;;;3.57;;
3843;SDS011;1937;51.444;6.484;2024-01-27T13:13:05;10.90;;;5.07;;
3843;SDS011;1937;51.444;6.484;2024-01-27T13:15:31;9.80;;;4.43;;
3843;SDS011;1937;51.444;6.484;2024-01-27T13:17:59;8.77;;;3.70;;
3843;SDS011;1937;51.444;6.484;2024-01-27T13:20:26;11.00;;;4.87;;
3843;SDS011;1937;51.444;6.484;2024-01-27T13:22:53;15.37;;;3.63;;
3843;SDS011;1937;51.444;6.484;2024-01-27T13:25:19;8.63;;;4.30;;
3843;SDS011;1937;51.444;6.484;2024-01-27T13:27:46;8.60;;;3.73;;
3843;SDS011;1937;51.444;6.484;2024-01-27T13:30:13;8.33;;;3.90;;
3843;SDS011;1937;51.444;6.484;2024-01-27T13:32:40;5.23;;;2.97;;
3843;SDS011;1937;51.444;6.484;2024-01-27T13:35:08;13.03;;;4.23;;
3843;SDS011;1937;51.444;6.484;2024-01-27T13:37:35;7.23;;;3.37;;
3843;SDS011;1937;51.444;6.484;2024-01-27T13:40:02;8.03;;;4.13;;
3843;SDS011;1937;51.444;6.484;2024-01-27T13:42:30;8.53;;;3.90;;
3843;SDS011;1937;51.444;6.484;2024-01-27T13:44:57;10.70;;;4.17;;
3843;SDS011;1937;51.444;6.484;2024-01-27T13:47:24;8.83;;;3.13;;
3843;SDS011;1937;51.444;6.484;2024-01-27T13:49:51;8.63;;;3.70;;
3843;SDS011;1937;51.444;6.484;2024-01-27T13:52:19;10.70;;;3.87;;
3843;SDS011;1937;51.444;6.484;2024-01-27T13:54:46;12.60;;;3.30;;
3843;SDS011;1937;51.444;6.484;2024-01-27T13:57:14;6.43;;;3.13;;
3843;SDS011;1937;51.444;6.484;2024-01-27T13:59:41;5.10;;;3.00;;
3843;SDS011;1937;51.444;6.484;2024-01-27T14:02:08;14.63;;;4.43;;
3843;SDS011;1937;51.444;6.484;2024-01-27T14:04:35;8.03;;;4.03;;
3843;SDS011;1937;51.444;6.484;2024-01-27T14:07:01;10.13;;;5.37;;
3843;SDS011;1937;51.444;6.484;2024-01-27T14:09:33;13.13;;;4.30;;
3843;SDS011;1937;51.444;6.484;2024-01-27T14:11:59;10.10;;;3.90;;
3843;SDS011;1937;51.444;6.484;2024-01-27T14:14:26;18.47;;;6.13;;
3843;SDS011;1937;51.444;6.484;2024-01-27T14:16:53;14.63;;;5.10;;
3843;SDS011;1937;51.444;6.484;2024-01-27T14:19:20;11.43;;;4.50;;
3843;SDS011;1937;51.444;6.484;2024-01-27T14:21:46;13.27;;;5.97;;
3843;SDS011;1937;51.444;6.484;2024-01-27T14:24:13;14.33;;;5.40;;
3843;SDS011;1937;51.444;6.484;2024-01-27T14:26:41;11.60;;;5.17;;
3843;SDS011;1937;51.444;6.484;2024-01-27T14:29:08;14.47;;;5.00;;
3843;SDS011;1937;51.444;6.484;2024-01-27T14:31:35;13.17;;;5.03;;
3843;SDS011;1937;51.444;6.484;2024-01-27T14:34:02;11.70;;;4.20;;
3843;SDS011;1937;51.444;6.484;2024-01-27T14:36:28;12.63;;;3.80;;
3843;SDS011;1937;51.444;6.484;2024-01-27T14:38:55;6.97;;;2.93;;
3843;SDS011;1937;51.444;6.484;2024-01-27T14:41:22;6.73;;;4.30;;
3843;SDS011;1937;51.444;6.484;2024-01-27T14:43:50;11.27;;;3.40;;
3843;SDS011;1937;51.444;6.484;2024-01-27T14:46:18;12.57;;;4.10;;
3843;SDS011;1937;51.444;6.484;2024-01-27T14:48:45;10.90;;;3.67;;
3843;SDS011;1937;51.444;6.484;2024-01-27T14:51:14;15.83;;;4.33;;
3843;SDS011;1937;51.444;6.484;2024-01-27T14:53:40;11.30;;;3.90;;
3843;SDS011;1937;51.444;6.484;2024-01-27T14:56:07;8.87;;;3.50;;
3843;SDS011;1937;51.444;6.484;2024-01-27T14:58:34;15.53;;;4.23;;
3843;SDS011;1937;51.444;6.484;2024-01-27T15:01:02;12.43;;;4.27;;
3843;SDS011;1937;51.444;6.484;2024-01-27T15:03:28;12.97;;;4.17;;